Time;durP1;ratioP1;P1;durP2;ratioP2;P2;SDS_P1;SDS_P2;PMS_P1;PMS_P2;Temp;Humidity;BMP_temperature;BMP_pressure;BME280_temperature;BME280_humidity;BME280_pressure;Samples;Min_cycle;Max_cycle;Signal;HPM_P1;HPM_P2
2023/06/19 00:00:02;;;;;;;12.85;8.63;;;21.80;1.00;;;;;;5051005;28;20631;-67
2023/06/19 00:02:29;;;;;;;12.55;8.90;;;21.80;1.00;;;;;;5050472;28;20206;-71
2023/06/19 00:04:56;;;;;;;12.38;8.48;;;21.70;99.90;;;;;;5050891;28;20234;-68
2023/06/19 00:07:23;;;;;;;11.05;8.77;;;21.70;99.90;;;;;;5051086;28;20238;-68
2023/06/19 00:09:50;;;;;;;9.73;8.73;;;21.80;99.90;;;;;;5050687;28;20202;-68
2023/06/19 00:12:17;;;;;;;9.93;7.85;;;21.60;99.90;;;;;;5051021;28;20266;-73
2023/06/19 00:14:45;;;;;;;11.20;10.10;;;21.60;99.90;;;;;;5050271;28;20254;-68
2023/06/19 00:17:16;;;;;;;12.10;8.23;;;21.70;99.90;;;;;;5050515;28;20246;-68
2023/06/19 00:19:43;;;;;;;11.13;8.75;;;21.80;99.90;;;;;;5050036;28;20211;-68
2023/06/19 00:22:10;;;;;;;8.38;7.50;;;21.70;99.90;;;;;;5051039;28;20238;-67
2023/06/19 00:24:37;;;;;;;8.20;7.10;;;21.70;99.90;;;;;;5050179;28;20717;-67
2023/06/19 00:27:04;;;;;;;11.07;7.93;;;21.70;99.90;;;;;;5050492;28;20203;-67
2023/06/19 00:29:31;;;;;;;9.40;7.60;;;21.70;99.90;;;;;;5050181;28;20683;-75
2023/06/19 00:32:00;;;;;;;12.48;9.30;;;21.60;99.90;;;;;;5050213;28;20227;-66
2023/06/19 00:34:27;;;;;;;10.27;7.90;;;21.60;99.90;;;;;;5035985;28;20206;-66
2023/06/19 00:36:56;;;;;;;8.68;7.13;;;21.60;99.90;;;;;;5050918;28;20203;-74
2023/06/19 00:39:23;;;;;;;8.65;7.75;;;21.70;99.90;;;;;;5050715;28;20297;-74
2023/06/19 00:41:52;;;;;;;9.80;8.23;;;21.60;99.90;;;;;;5050326;28;20249;-70
2023/06/19 00:44:19;;;;;;;11.32;8.10;;;21.60;99.90;;;;;;5050003;28;20242;-70
2023/06/19 00:46:46;;;;;;;8.40;7.60;;;21.60;99.90;;;;;;5049454;28;20393;-74
2023/06/19 00:49:15;;;;;;;11.55;8.95;;;21.50;99.90;;;;;;5050620;28;20300;-65
2023/06/19 00:51:42;;;;;;;9.23;8.30;;;21.50;99.90;;;;;;5049739;28;20680;-65
2023/06/19 00:54:09;;;;;;;14.27;8.90;;;21.50;99.90;;;;;;5050323;28;20234;-65
2023/06/19 00:56:39;;;;;;;9.18;8.27;;;21.50;99.90;;;;;;5050060;28;20648;-66
2023/06/19 00:59:11;;;;;;;11.70;8.27;;;21.50;99.90;;;;;;5050054;28;20206;-65
2023/06/19 01:01:39;;;;;;;10.20;7.47;;;21.30;99.90;;;;;;5049609;28;20238;-66
2023/06/19 01:04:06;;;;;;;9.52;8.63;;;21.30;99.90;;;;;;5050061;28;20261;-68
2023/06/19 01:06:47;;;;;;;12.05;8.13;;;21.30;99.90;;;;;;5049772;28;20250;-66
2023/06/19 01:09:17;;;;;;;9.77;8.82;;;21.30;99.90;;;;;;5050113;28;20551;-73
2023/06/19 01:11:48;;;;;;;10.27;7.82;;;21.30;99.90;;;;;;5049594;28;20226;-67
2023/06/19 01:14:19;;;;;;;10.82;8.13;;;21.20;99.90;;;;;;5050101;28;20241;-68
2023/06/19 01:16:47;;;;;;;12.50;8.00;;;21.00;99.90;;;;;;5049518;28;20578;-72
2023/06/19 01:19:19;;;;;;;12.75;8.30;;;21.00;99.90;;;;;;5049718;28;20325;-66
2023/06/19 01:21:48;;;;;;;8.45;7.65;;;21.00;99.90;;;;;;5049574;28;20221;-67
2023/06/19 01:24:16;;;;;;;8.38;7.60;;;20.90;99.90;;;;;;5049650;28;20655;-72
2023/06/19 01:26:45;;;;;;;11.65;7.70;;;20.90;99.90;;;;;;5049636;28;20246;-65
2023/06/19 01:29:14;;;;;;;15.18;7.45;;;20.80;99.90;;;;;;5049937;28;20213;-73
2023/06/19 01:31:48;;;;;;;9.18;6.90;;;20.70;99.90;;;;;;5049604;28;20317;-80
2023/06/19 01:34:18;;;;;;;12.02;7.50;;;20.80;99.90;;;;;;5035997;28;20234;-73
2023/06/19 01:36:46;;;;;;;9.68;7.20;;;20.70;99.90;;;;;;5049494;28;20246;-68
2023/06/19 01:39:13;;;;;;;11.40;7.57;;;20.70;99.90;;;;;;5049614;28;20234;-68
2023/06/19 01:41:43;;;;;;;9.20;6.72;;;20.70;99.90;;;;;;5049813;28;20207;-66
2023/06/19 01:44:10;;;;;;;8.93;7.53;;;20.70;99.90;;;;;;5049409;28;20235;-66
2023/06/19 01:46:37;;;;;;;9.55;6.97;;;20.60;99.90;;;;;;5049577;28;20265;-67
2023/06/19 01:49:08;;;;;;;7.10;6.40;;;20.60;99.90;;;;;;5049568;28;20203;-63
2023/06/19 01:51:35;;;;;;;10.27;7.63;;;20.60;99.90;;;;;;5049337;28;20222;-67
2023/06/19 01:54:02;;;;;;;12.90;6.70;;;20.70;99.90;;;;;;5049821;28;20689;-67
2023/06/19 01:56:29;;;;;;;9.77;6.57;;;20.70;99.90;;;;;;5050923;28;20239;-67
2023/06/19 01:58:58;;;;;;;8.00;7.20;;;20.70;99.90;;;;;;5053235;28;20234;-67
2023/06/19 02:01:25;;;;;;;9.68;6.72;;;20.60;99.90;;;;;;5053322;28;20241;-71
2023/06/19 02:03:51;;;;;;;8.00;7.10;;;20.60;99.90;;;;;;5053715;28;20246;-80
2023/06/19 02:06:18;;;;;;;13.25;7.00;;;20.50;99.90;;;;;;5053358;28;20239;-73
2023/06/19 02:08:45;;;;;;;7.45;6.43;;;20.60;99.90;;;;;;5053359;28;20705;-73
2023/06/19 02:11:12;;;;;;;8.38;6.60;;;20.50;99.90;;;;;;5053268;28;20751;-72
2023/06/19 02:13:39;;;;;;;13.13;7.63;;;20.50;99.90;;;;;;5052901;28;20266;-73
2023/06/19 02:16:07;;;;;;;13.82;6.82;;;20.50;99.90;;;;;;5053158;28;20210;-73
2023/06/19 02:18:34;;;;;;;8.90;7.47;;;20.50;99.90;;;;;;5052869;28;20234;-69
2023/06/19 02:21:01;;;;;;;11.63;6.95;;;20.50;99.90;;;;;;5053245;28;20238;-69
2023/06/19 02:23:28;;;;;;;10.68;7.15;;;20.50;99.90;;;;;;5052533;28;20679;-68
2023/06/19 02:25:55;;;;;;;7.13;6.47;;;20.50;99.90;;;;;;5053183;28;20238;-79
2023/06/19 02:28:22;;;;;;;8.73;6.93;;;20.50;99.90;;;;;;5053054;28;20238;-68
2023/06/19 02:30:49;;;;;;;9.88;7.05;;;20.40;99.90;;;;;;5052794;28;20663;-68
2023/06/19 02:33:17;;;;;;;8.73;7.05;;;20.50;99.90;;;;;;5042614;28;20235;-83
2023/06/19 02:35:44;;;;;;;8.25;6.32;;;20.50;99.90;;;;;;5048944;28;20259;-78
2023/06/19 02:38:12;;;;;;;10.70;7.43;;;20.60;99.90;;;;;;5053158;28;20249;-74
2023/06/19 02:40:39;;;;;;;8.20;6.40;;;20.60;99.90;;;;;;5052268;28;20206;-67
2023/06/19 02:43:06;;;;;;;8.55;7.15;;;20.60;99.90;;;;;;5050624;28;20221;-77
2023/06/19 02:45:33;;;;;;;9.00;6.68;;;20.60;99.90;;;;;;5052048;28;20245;-78
2023/06/19 02:48:00;;;;;;;12.02;7.47;;;20.50;99.90;;;;;;5052617;28;20321;-82
2023/06/19 02:50:28;;;;;;;9.90;6.70;;;20.40;99.90;;;;;;5051934;28;20242;-70
2023/06/19 02:52:55;;;;;;;11.95;7.38;;;20.30;99.90;;;;;;5052504;28;20273;-68
2023/06/19 02:55:22;;;;;;;6.90;6.35;;;20.30;99.90;;;;;;5053011;28;20249;-76
2023/06/19 02:57:48;;;;;;;7.43;6.68;;;20.30;99.90;;;;;;5052212;28;20259;-69
2023/06/19 03:00:17;;;;;;;10.10;7.30;;;20.30;99.90;;;;;;5052513;28;20249;-77
2023/06/19 03:02:44;;;;;;;8.48;7.25;;;20.30;99.90;;;;;;5052053;28;20218;-82
2023/06/19 03:05:14;;;;;;;8.68;7.38;;;20.20;99.90;;;;;;5052723;28;20233;-84
2023/06/19 03:07:42;;;;;;;9.52;7.13;;;20.20;99.90;;;;;;5052046;28;20655;-78
2023/06/19 03:10:10;;;;;;;9.15;7.05;;;20.20;99.90;;;;;;5052114;28;20253;-78
2023/06/19 03:12:37;;;;;;;8.75;7.47;;;20.20;99.90;;;;;;5051588;28;20310;-74
2023/06/19 03:15:04;;;;;;;8.90;6.55;;;20.20;99.90;;;;;;5051878;28;20242;-75
2023/06/19 03:17:31;;;;;;;7.93;7.22;;;20.20;99.90;;;;;;5051868;28;20284;-72
2023/06/19 03:19:58;;;;;;;7.55;6.35;;;20.20;99.90;;;;;;5052058;28;20213;-87
2023/06/19 03:22:25;;;;;;;7.30;6.60;;;20.10;99.90;;;;;;5052098;28;20241;-83
2023/06/19 03:24:53;;;;;;;13.80;6.88;;;20.10;99.90;;;;;;5051961;28;20246;-68
2023/06/19 03:27:20;;;;;;;8.70;6.72;;;20.10;99.90;;;;;;5052340;28;20245;-68
2023/06/19 03:29:47;;;;;;;13.07;7.47;;;20.10;99.90;;;;;;5051901;28;20238;-84
2023/06/19 03:32:14;;;;;;;6.78;6.18;;;20.10;99.90;;;;;;5051549;28;20277;-70
2023/06/19 03:34:41;;;;;;;7.82;6.97;;;20.10;99.90;;;;;;5051566;28;20238;-69
2023/06/19 03:37:08;;;;;;;7.85;7.15;;;20.20;99.90;;;;;;5051424;28;20261;-84
2023/06/19 03:39:35;;;;;;;9.43;6.63;;;20.20;99.90;;;;;;5051151;28;20213;-70
2023/06/19 03:42:03;;;;;;;9.40;6.85;;;20.10;99.90;;;;;;5051509;28;20572;-84
2023/06/19 03:44:30;;;;;;;7.55;6.85;;;20.10;99.90;;;;;;5051169;28;20230;-71
2023/06/19 03:46:57;;;;;;;8.02;7.05;;;20.00;99.90;;;;;;5049722;28;20242;-71
2023/06/19 03:49:28;;;;;;;8.10;7.18;;;20.00;99.90;;;;;;5048096;28;20246;-70
2023/06/19 03:51:58;;;;;;;7.50;6.80;;;20.00;99.90;;;;;;5045844;28;20250;-77
2023/06/19 03:54:26;;;;;;;6.93;6.32;;;20.00;99.90;;;;;;5046285;28;20247;-82
2023/06/19 03:56:52;;;;;;;9.38;7.15;;;20.00;99.90;;;;;;5052022;28;20294;-87
2023/06/19 03:59:25;;;;;;;12.20;7.85;;;20.00;99.90;;;;;;5051586;28;20245;-82
2023/06/19 04:01:52;;;;;;;9.65;6.47;;;20.00;99.90;;;;;;5050427;28;20285;-81
2023/06/19 04:04:19;;;;;;;20.02;9.27;;;20.00;99.90;;;;;;5051304;28;20627;-71
2023/06/19 04:06:47;;;;;;;7.75;6.32;;;20.00;99.90;;;;;;5050213;28;20242;-79
2023/06/19 04:09:14;;;;;;;7.60;6.53;;;20.10;99.90;;;;;;5050735;28;20721;-70
2023/06/19 04:11:40;;;;;;;7.45;6.47;;;20.10;99.90;;;;;;5050414;28;20211;-69
2023/06/19 04:14:07;;;;;;;8.32;6.97;;;20.20;99.90;;;;;;5050828;28;20266;-76
2023/06/19 04:16:36;;;;;;;9.60;6.82;;;20.10;99.90;;;;;;5050164;28;20246;-69
2023/06/19 04:19:03;;;;;;;9.50;7.07;;;20.00;99.90;;;;;;5050070;28;20249;-70
2023/06/19 04:21:30;;;;;;;8.70;6.93;;;20.10;99.90;;;;;;5050646;28;20210;-70
2023/06/19 04:23:56;;;;;;;8.90;6.47;;;20.10;99.90;;;;;;5050523;28;20276;-74
2023/06/19 04:26:24;;;;;;;7.95;6.80;;;20.20;99.90;;;;;;5051148;28;20642;-72
2023/06/19 04:28:51;;;;;;;8.50;7.63;;;20.20;99.90;;;;;;5050515;28;20206;-75
2023/06/19 04:31:18;;;;;;;8.38;7.40;;;20.20;99.90;;;;;;5050415;28;20242;-74
2023/06/19 04:33:47;;;;;;;10.10;6.65;;;20.10;99.90;;;;;;5050097;28;20238;-76
2023/06/19 04:36:14;;;;;;;7.53;6.85;;;20.10;99.90;;;;;;5050388;28;20203;-80
2023/06/19 04:38:41;;;;;;;12.98;9.32;;;20.10;99.90;;;;;;5049905;28;20203;-79
2023/06/19 04:41:08;;;;;;;7.85;7.05;;;20.20;99.90;;;;;;5050654;28;20238;-65
2023/06/19 04:43:35;;;;;;;9.93;8.27;;;20.30;99.90;;;;;;5041093;28;20250;-69
2023/06/19 04:46:03;;;;;;;7.82;6.88;;;20.30;99.90;;;;;;5050564;28;20716;-85
2023/06/19 04:48:30;;;;;;;7.80;7.05;;;20.30;99.90;;;;;;5049770;28;20210;-71
2023/06/19 04:51:00;;;;;;;10.63;6.57;;;20.30;99.90;;;;;;5050511;28;20206;-69
2023/06/19 04:53:27;;;;;;;9.95;7.10;;;20.30;99.90;;;;;;5049933;28;20230;-66
2023/06/19 04:55:55;;;;;;;12.52;7.68;;;20.20;99.90;;;;;;5050203;28;20238;-69
2023/06/19 04:58:22;;;;;;;11.20;8.05;;;20.20;99.90;;;;;;5050407;28;20210;-69
2023/06/19 05:00:52;;;;;;;10.50;7.68;;;20.20;99.90;;;;;;5049300;28;20207;-81
2023/06/19 05:03:19;;;;;;;13.35;8.98;;;20.30;99.90;;;;;;5050292;28;20218;-75
2023/06/19 05:05:46;;;;;;;7.80;6.93;;;20.30;99.90;;;;;;5049635;28;20210;-68
2023/06/19 05:08:15;;;;;;;8.65;7.80;;;20.30;99.90;;;;;;5050106;28;20746;-81
2023/06/19 05:10:42;;;;;;;8.43;7.53;;;20.30;99.90;;;;;;5049398;28;20242;-73
2023/06/19 05:13:09;;;;;;;8.82;8.00;;;20.20;99.90;;;;;;5049670;28;20262;-81
2023/06/19 05:15:35;;;;;;;9.88;7.35;;;20.20;99.90;;;;;;5049696;28;20253;-72
2023/06/19 05:18:02;;;;;;;10.18;8.07;;;20.20;99.90;;;;;;5050024;28;20234;-83
2023/06/19 05:20:29;;;;;;;7.13;6.38;;;20.30;99.90;;;;;;5049870;28;20239;-68
2023/06/19 05:22:56;;;;;;;11.18;7.43;;;20.30;99.90;;;;;;5049887;28;20569;-69
2023/06/19 05:25:25;;;;;;;11.15;6.88;;;20.30;99.90;;;;;;5050414;28;20199;-66
2023/06/19 05:27:52;;;;;;;7.05;6.32;;;20.30;99.90;;;;;;5050245;28;20242;-72
2023/06/19 05:30:19;;;;;;;9.32;7.72;;;20.30;99.90;;;;;;5049891;28;20246;-69
2023/06/19 05:32:45;;;;;;;12.27;8.63;;;20.30;99.90;;;;;;5053142;28;20250;-70
2023/06/19 05:35:12;;;;;;;7.95;7.25;;;20.40;99.90;;;;;;5053758;28;20230;-79
2023/06/19 05:37:42;;;;;;;7.97;6.35;;;20.50;99.90;;;;;;5053290;28;20245;-80
2023/06/19 05:40:10;;;;;;;8.13;7.30;;;20.60;99.90;;;;;;5053514;28;20213;-70
2023/06/19 05:42:38;;;;;;;7.82;7.03;;;20.70;99.90;;;;;;5053256;28;20203;-70
2023/06/19 05:45:06;;;;;;;7.63;6.70;;;20.90;99.90;;;;;;5053544;28;20235;-71
2023/06/19 05:47:33;;;;;;;7.30;5.90;;;21.00;99.90;;;;;;5051413;28;20242;-67
2023/06/19 05:50:00;;;;;;;11.32;8.20;;;21.10;99.90;;;;;;5053178;28;20646;-76
2023/06/19 05:52:27;;;;;;;7.28;6.47;;;21.30;99.90;;;;;;5051892;28;20677;-66
2023/06/19 05:54:54;;;;;;;7.30;6.60;;;21.40;99.90;;;;;;5053220;28;20273;-71
2023/06/19 05:57:21;;;;;;;8.10;7.35;;;21.60;99.90;;;;;;5052829;28;20249;-80
2023/06/19 05:59:50;;;;;;;7.55;6.80;;;21.90;99.90;;;;;;5052218;28;20261;-70
2023/06/19 06:02:18;;;;;;;8.55;7.28;;;21.90;99.90;;;;;;5054743;28;20263;-74
2023/06/19 06:04:45;;;;;;;8.35;6.35;;;21.70;99.90;;;;;;5052629;28;20293;-72
2023/06/19 06:07:13;;;;;;;8.00;6.35;;;21.60;99.90;;;;;;5052537;28;20253;-73
2023/06/19 06:09:40;;;;;;;8.25;7.40;;;21.60;99.90;;;;;;5050152;28;20579;-76
2023/06/19 06:12:08;;;;;;;7.30;6.60;;;21.50;99.90;;;;;;5052674;28;20226;-67
2023/06/19 06:14:35;;;;;;;11.95;8.10;;;21.40;99.90;;;;;;5052319;28;20269;-68
2023/06/19 06:17:05;;;;;;;8.27;7.05;;;21.40;99.90;;;;;;5052989;28;20717;-69
2023/06/19 06:19:31;;;;;;;8.93;7.53;;;21.40;99.90;;;;;;5052507;28;20214;-68
2023/06/19 06:21:58;;;;;;;7.88;6.65;;;21.40;99.90;;;;;;5049484;28;20231;-71
2023/06/19 06:24:25;;;;;;;8.75;6.25;;;21.50;99.90;;;;;;5052557;28;20238;-72
2023/06/19 06:26:52;;;;;;;9.25;8.00;;;21.60;99.90;;;;;;5053144;28;20211;-75
2023/06/19 06:29:19;;;;;;;9.93;7.25;;;21.40;99.90;;;;;;5052753;28;20702;-72
2023/06/19 06:31:48;;;;;;;8.23;7.45;;;21.40;99.90;;;;;;5052494;28;20683;-71
2023/06/19 06:34:16;;;;;;;8.68;7.95;;;21.40;99.90;;;;;;5052364;28;20258;-71
2023/06/19 06:36:43;;;;;;;12.68;8.32;;;21.40;99.90;;;;;;5052128;28;20721;-73
2023/06/19 06:39:11;;;;;;;9.50;8.02;;;21.40;99.90;;;;;;5052442;28;20292;-72
2023/06/19 06:41:38;;;;;;;7.97;6.97;;;21.40;99.90;;;;;;5051895;28;20210;-80
2023/06/19 06:44:05;;;;;;;8.10;7.32;;;21.50;99.90;;;;;;5052500;28;20713;-72
2023/06/19 06:46:32;;;;;;;10.57;7.38;;;21.50;99.90;;;;;;5052171;28;20288;-83
2023/06/19 06:48:59;;;;;;;10.02;8.32;;;21.60;99.90;;;;;;5052169;28;20690;-74
2023/06/19 06:51:27;;;;;;;7.72;7.03;;;21.80;99.90;;;;;;5051867;28;20299;-70
2023/06/19 06:53:54;;;;;;;7.82;7.03;;;21.80;99.90;;;;;;5052219;28;20674;-71
2023/06/19 06:56:21;;;;;;;9.32;7.22;;;21.70;99.90;;;;;;5050938;28;20245;-72
2023/06/19 06:58:48;;;;;;;9.50;8.38;;;21.70;99.90;;;;;;5051483;28;20242;-77
2023/06/19 07:01:15;;;;;;;9.15;7.47;;;21.60;99.90;;;;;;5049531;28;20288;-87
2023/06/19 07:03:42;;;;;;;8.93;7.90;;;21.70;99.90;;;;;;5050429;28;20730;-74
2023/06/19 07:06:09;;;;;;;9.75;8.82;;;21.60;99.90;;;;;;5048875;28;20513;-71
2023/06/19 07:08:38;;;;;;;9.23;8.32;;;21.60;99.90;;;;;;5051270;28;20238;-80
2023/06/19 07:11:05;;;;;;;11.27;7.93;;;21.60;99.90;;;;;;5052157;28;20222;-76
2023/06/19 07:13:32;;;;;;;8.45;7.70;;;21.60;99.90;;;;;;5050339;28;20261;-75
2023/06/19 07:16:01;;;;;;;9.77;7.82;;;21.50;99.90;;;;;;5051538;28;20243;-80
2023/06/19 07:18:28;;;;;;;9.35;7.72;;;21.60;99.90;;;;;;5051386;28;20209;-77
2023/06/19 07:20:55;;;;;;;9.82;8.40;;;21.50;99.90;;;;;;5051840;28;20242;-79
2023/06/19 07:23:22;;;;;;;12.32;8.50;;;21.50;99.90;;;;;;5051037;28;20207;-78
2023/06/19 07:25:50;;;;;;;9.75;8.88;;;21.40;99.90;;;;;;5050894;28;20238;-77
2023/06/19 07:28:17;;;;;;;13.93;9.52;;;21.40;99.90;;;;;;5051542;28;20269;-73
2023/06/19 07:30:47;;;;;;;10.30;9.40;;;21.40;99.90;;;;;;5047908;28;20692;-79
2023/06/19 07:33:14;;;;;;;12.02;9.27;;;21.40;99.90;;;;;;5051572;28;20237;-75
2023/06/19 07:35:41;;;;;;;11.90;10.80;;;21.40;99.90;;;;;;5041707;28;20235;-70
2023/06/19 07:38:08;;;;;;;11.13;10.05;;;21.40;99.90;;;;;;5048455;28;20330;-72
2023/06/19 07:40:35;;;;;;;12.48;11.13;;;21.40;99.90;;;;;;5051312;28;20242;-78
2023/06/19 07:43:03;;;;;;;12.30;11.18;;;21.40;99.90;;;;;;5051253;28;20237;-79
2023/06/19 07:45:30;;;;;;;12.05;10.73;;;21.50;99.90;;;;;;5048715;28;20228;-71
2023/06/19 07:47:57;;;;;;;13.45;10.57;;;21.50;99.90;;;;;;5047712;28;20369;-78
2023/06/19 07:50:25;;;;;;;12.50;10.80;;;21.70;99.90;;;;;;5051566;28;20222;-68
2023/06/19 07:52:51;;;;;;;13.93;10.90;;;21.80;99.90;;;;;;5047624;28;20207;-69
2023/06/19 07:55:18;;;;;;;12.48;11.27;;;21.90;99.90;;;;;;5049508;28;20261;-78
2023/06/19 07:57:46;;;;;;;10.82;9.55;;;21.90;99.90;;;;;;5048870;28;20399;-79
2023/06/19 08:00:16;;;;;;;12.77;11.43;;;22.10;99.90;;;;;;5047435;28;20242;-80
2023/06/19 08:02:43;;;;;;;10.70;9.35;;;22.80;99.90;;;;;;5049280;28;20238;-68
2023/06/19 08:05:11;;;;;;;13.85;11.75;;;23.00;99.90;;;;;;5049223;28;20249;-79
2023/06/19 08:07:38;;;;;;;11.38;10.30;;;22.90;99.90;;;;;;5046479;28;20210;-76
2023/06/19 08:10:06;;;;;;;10.95;9.20;;;22.90;99.90;;;;;;5044825;28;20198;-78
2023/06/19 08:12:33;;;;;;;10.93;9.60;;;23.10;99.90;;;;;;5050122;28;20207;-85
2023/06/19 08:15:00;;;;;;;11.43;10.30;;;23.60;99.90;;;;;;5051047;28;20273;-77
2023/06/19 08:17:28;;;;;;;9.88;8.88;;;24.10;99.90;;;;;;5048542;28;20231;-80
2023/06/19 08:19:55;;;;;;;10.98;9.63;;;24.00;99.90;;;;;;5049311;28;20242;-73
2023/06/19 08:22:22;;;;;;;14.85;10.20;;;23.80;99.90;;;;;;5043774;28;20245;-77
2023/06/19 08:24:49;;;;;;;10.95;9.93;;;23.50;99.90;;;;;;5047448;28;20230;-79
2023/06/19 08:27:16;;;;;;;11.48;10.43;;;23.50;99.90;;;;;;5050307;28;20203;-81
2023/06/19 08:29:44;;;;;;;10.63;9.23;;;23.40;99.90;;;;;;5049640;28;20245;-84
2023/06/19 08:32:11;;;;;;;10.77;9.60;;;23.50;99.90;;;;;;5047610;28;20225;-82
2023/06/19 08:34:39;;;;;;;13.50;9.68;;;23.30;99.90;;;;;;5048736;28;20254;-81
2023/06/19 08:37:06;;;;;;;12.30;10.85;;;23.20;99.90;;;;;;5044870;28;20206;-74
2023/06/19 08:39:33;;;;;;;12.25;9.57;;;23.00;99.90;;;;;;5046105;28;20246;-76
2023/06/19 08:42:00;;;;;;;15.18;10.02;;;22.80;99.90;;;;;;5044150;28;20207;-75
2023/06/19 08:44:27;;;;;;;10.63;9.63;;;22.70;99.90;;;;;;5049586;28;20230;-75
2023/06/19 08:46:54;;;;;;;15.43;10.73;;;22.80;99.90;;;;;;5050594;28;20332;-70
2023/06/19 08:49:21;;;;;;;10.32;9.32;;;22.60;99.90;;;;;;5046313;28;20286;-81
2023/06/19 08:51:49;;;;;;;12.25;11.05;;;22.50;99.90;;;;;;5048741;28;20312;-76
2023/06/19 08:54:16;;;;;;;12.93;11.48;;;22.60;99.90;;;;;;5049717;28;20266;-76
2023/06/19 08:56:43;;;;;;;11.65;9.10;;;22.70;99.90;;;;;;5050102;28;20242;-80
2023/06/19 08:59:11;;;;;;;11.25;10.15;;;22.60;99.90;;;;;;5043465;28;20702;-81
2023/06/19 09:01:38;;;;;;;9.95;9.05;;;22.60;99.90;;;;;;5039674;28;20237;-85
2023/06/19 09:04:12;;;;;;;13.35;9.60;;;22.70;99.90;;;;;;5041422;28;20250;-74
2023/06/19 09:06:52;;;;;;;10.68;9.68;;;22.60;99.90;;;;;;5051974;28;20199;-74
2023/06/19 09:09:20;;;;;;;10.65;9.32;;;22.60;99.90;;;;;;5054222;28;20233;-80
2023/06/19 09:11:59;;;;;;;12.27;10.98;;;22.60;99.90;;;;;;5051622;28;20693;-76
2023/06/19 09:14:33;;;;;;;31.10;13.88;;;22.50;99.90;;;;;;5051221;28;20222;-74
2023/06/19 09:17:00;;;;;;;14.00;12.50;;;22.40;99.90;;;;;;5053390;28;20581;-76
2023/06/19 09:19:27;;;;;;;14.10;12.68;;;22.50;99.90;;;;;;5049751;28;20297;-77
2023/06/19 09:22:00;;;;;;;14.55;11.68;;;22.40;99.90;;;;;;5054094;28;20217;-77
2023/06/19 09:24:36;;;;;;;15.23;10.45;;;22.40;99.90;;;;;;5052592;28;20202;-74
2023/06/19 09:27:13;;;;;;;16.17;11.00;;;22.30;99.90;;;;;;5053730;28;20210;-77
2023/06/19 09:29:40;;;;;;;12.85;10.68;;;22.20;99.90;;;;;;5053024;28;20206;-76
2023/06/19 09:32:18;;;;;;;13.60;11.20;;;22.20;99.90;;;;;;5053061;28;20253;-78
2023/06/19 09:34:44;;;;;;;15.82;12.13;;;22.30;99.90;;;;;;5051313;28;20648;-76
2023/06/19 09:37:13;;;;;;;13.48;10.90;;;22.50;99.90;;;;;;5053562;28;20268;-75
2023/06/19 09:39:41;;;;;;;13.27;11.88;;;22.70;99.90;;;;;;5047915;28;20238;-74
2023/06/19 09:42:10;;;;;;;11.30;10.30;;;22.90;99.90;;;;;;5051040;28;20238;-76
2023/06/19 09:44:42;;;;;;;10.88;9.85;;;22.90;99.90;;;;;;5048363;28;20233;-86
2023/06/19 09:47:20;;;;;;;12.82;10.27;;;22.70;99.90;;;;;;5052506;28;20213;-78
2023/06/19 09:49:51;;;;;;;13.40;10.88;;;22.90;99.90;;;;;;5053358;28;20198;-84
2023/06/19 09:52:22;;;;;;;11.25;10.05;;;22.90;99.90;;;;;;5053538;28;20409;-87
2023/06/19 09:54:50;;;;;;;11.07;10.07;;;23.10;99.90;;;;;;5053001;28;20238;-87
2023/06/19 09:57:18;;;;;;;9.45;8.55;;;22.90;99.90;;;;;;5051049;28;20308;-77
2023/06/19 09:59:46;;;;;;;11.02;10.00;;;23.20;99.90;;;;;;5053081;28;20210;-82
2023/06/19 10:02:14;;;;;;;11.82;9.27;;;23.50;99.90;;;;;;5053890;28;20237;-81
2023/06/19 10:04:46;;;;;;;9.80;9.00;;;23.70;99.90;;;;;;5052959;28;20207;-75
2023/06/19 10:07:19;;;;;;;10.20;9.38;;;23.80;99.90;;;;;;5053333;28;20667;-80
2023/06/19 10:09:59;;;;;;;10.25;9.25;;;23.90;99.90;;;;;;5053223;28;20246;-73
2023/06/19 10:12:40;;;;;;;16.27;10.77;;;24.00;99.90;;;;;;5053108;28;20242;-69
2023/06/19 10:15:12;;;;;;;10.95;10.00;;;23.70;99.90;;;;;;5042626;28;20262;-70
2023/06/19 10:17:44;;;;;;;10.38;9.40;;;23.60;99.90;;;;;;5047754;28;20297;-72
2023/06/19 10:20:25;;;;;;;10.43;9.52;;;23.50;99.90;;;;;;5043008;28;20242;-75
2023/06/19 10:23:01;;;;;;;10.02;9.10;;;23.50;99.90;;;;;;5052815;28;20245;-73
2023/06/19 10:25:32;;;;;;;9.70;8.80;;;23.50;99.90;;;;;;5051460;28;20210;-82
2023/06/19 10:27:59;;;;;;;10.07;9.10;;;23.50;99.90;;;;;;5051875;28;20218;-84
2023/06/19 10:30:27;;;;;;;9.63;8.75;;;23.50;99.90;;;;;;5050211;28;20265;-72
2023/06/19 10:32:54;;;;;;;11.90;10.38;;;23.60;99.90;;;;;;5049416;28;20246;-83
2023/06/19 10:35:25;;;;;;;9.93;8.98;;;23.50;99.90;;;;;;5051944;28;20234;-85
2023/06/19 10:37:52;;;;;;;12.55;8.02;;;23.60;99.90;;;;;;5044769;28;20207;-70
2023/06/19 10:40:20;;;;;;;10.80;8.73;;;23.50;99.90;;;;;;5050642;28;20624;-70
2023/06/19 10:42:47;;;;;;;9.27;8.45;;;23.50;99.90;;;;;;5051770;28;20805;-71
2023/06/19 10:45:16;;;;;;;9.90;8.95;;;23.50;99.90;;;;;;5051040;28;20253;-71
2023/06/19 10:47:43;;;;;;;9.50;8.57;;;23.40;99.90;;;;;;5047958;28;20242;-70
2023/06/19 10:50:12;;;;;;;10.07;9.00;;;23.50;99.90;;;;;;5051158;28;20744;-77
2023/06/19 10:52:42;;;;;;;9.13;8.27;;;23.90;99.90;;;;;;5050111;28;20269;-75
2023/06/19 10:55:11;;;;;;;9.57;8.32;;;24.00;99.90;;;;;;5051943;28;20234;-71
2023/06/19 10:57:39;;;;;;;9.02;8.05;;;24.10;99.90;;;;;;5049633;28;20199;-72
2023/06/19 11:00:12;;;;;;;8.90;7.97;;;24.20;99.90;;;;;;5052132;28;20213;-76
2023/06/19 11:02:42;;;;;;;7.78;7.18;;;24.20;99.90;;;;;;5049907;28;20690;-71
2023/06/19 11:05:10;;;;;;;9.85;8.25;;;24.20;99.90;;;;;;5043807;28;20212;-77
2023/06/19 11:07:37;;;;;;;7.35;6.75;;;24.40;99.90;;;;;;5050950;28;20269;-73
2023/06/19 11:10:05;;;;;;;11.63;7.40;;;24.50;99.90;;;;;;5051657;28;20199;-83
2023/06/19 11:12:33;;;;;;;8.57;7.88;;;24.60;99.90;;;;;;5052109;28;20359;-70
2023/06/19 11:15:05;;;;;;;11.93;6.72;;;24.60;99.90;;;;;;5051827;28;20227;-77
2023/06/19 11:17:33;;;;;;;8.52;7.80;;;24.50;99.90;;;;;;5051460;28;20242;-70
2023/06/19 11:20:00;;;;;;;8.43;7.60;;;24.40;99.90;;;;;;5051714;28;20249;-70
2023/06/19 11:22:38;;;;;;;9.48;8.48;;;24.50;99.90;;;;;;5046077;28;20207;-77
2023/06/19 11:25:07;;;;;;;8.63;7.82;;;24.60;99.90;;;;;;5044427;28;20686;-81
2023/06/19 11:27:35;;;;;;;8.48;7.78;;;24.70;99.90;;;;;;5049321;28;20238;-72
2023/06/19 11:30:04;;;;;;;11.45;8.00;;;24.60;99.90;;;;;;5045863;28;20214;-73
2023/06/19 11:32:33;;;;;;;10.23;8.43;;;24.70;99.90;;;;;;5050880;28;20290;-72
2023/06/19 11:35:08;;;;;;;8.45;7.72;;;24.80;99.90;;;;;;5046819;28;20235;-74
2023/06/19 11:37:35;;;;;;;9.40;8.50;;;25.00;99.90;;;;;;5038847;28;20224;-71
2023/06/19 11:40:09;;;;;;;13.90;8.25;;;24.90;99.90;;;;;;5040012;28;20298;-76
2023/06/19 11:42:49;;;;;;;8.15;7.45;;;24.80;99.90;;;;;;5045065;28;20207;-70
2023/06/19 11:45:17;;;;;;;7.75;7.05;;;25.20;99.90;;;;;;5048699;28;20929;-71
2023/06/19 11:47:46;;;;;;;8.88;6.95;;;25.20;99.90;;;;;;5043961;28;20234;-71
2023/06/19 11:50:15;;;;;;;10.88;8.50;;;25.10;99.90;;;;;;5050886;28;20217;-73
2023/06/19 11:52:43;;;;;;;10.23;7.20;;;24.80;99.90;;;;;;5050315;28;20239;-72
2023/06/19 11:55:10;;;;;;;14.63;7.80;;;24.70;99.90;;;;;;5050934;28;20261;-72
2023/06/19 11:57:37;;;;;;;6.70;6.10;;;24.70;99.90;;;;;;5048171;28;20226;-73
2023/06/19 12:00:08;;;;;;;8.00;7.15;;;24.90;99.90;;;;;;5041863;28;20238;-72
2023/06/19 12:02:37;;;;;;;9.23;8.35;;;24.90;99.90;;;;;;5043627;28;20206;-72
2023/06/19 12:05:04;;;;;;;8.70;6.25;;;24.80;99.90;;;;;;5050890;28;20247;-72
2023/06/19 12:07:31;;;;;;;7.90;7.30;;;24.90;99.90;;;;;;5049133;28;20269;-72
2023/06/19 12:09:58;;;;;;;9.88;8.55;;;24.90;99.90;;;;;;5050178;28;20203;-72
2023/06/19 12:12:25;;;;;;;10.05;8.20;;;24.90;99.90;;;;;;5049052;28;20706;-72
2023/06/19 12:14:52;;;;;;;10.57;8.27;;;25.20;99.90;;;;;;5049491;28;20281;-72
2023/06/19 12:17:19;;;;;;;8.38;7.65;;;25.00;99.90;;;;;;5050516;28;20203;-75
2023/06/19 12:19:48;;;;;;;9.00;7.72;;;25.20;99.90;;;;;;5050075;28;20772;-69
2023/06/19 12:22:15;;;;;;;8.57;7.93;;;25.00;99.90;;;;;;5047609;28;20213;-68
2023/06/19 12:24:42;;;;;;;12.93;9.13;;;24.80;99.90;;;;;;5042692;28;20235;-74
2023/06/19 12:27:09;;;;;;;7.68;6.90;;;24.60;99.90;;;;;;5041476;28;20625;-76
2023/06/19 12:29:36;;;;;;;9.18;7.38;;;24.50;99.90;;;;;;5045277;28;20252;-69
2023/06/19 12:32:03;;;;;;;7.72;7.13;;;24.20;99.90;;;;;;5046038;28;20239;-68
2023/06/19 12:34:30;;;;;;;8.07;7.38;;;23.90;99.90;;;;;;5047019;28;20206;-69
2023/06/19 12:36:58;;;;;;;8.00;6.82;;;23.90;99.90;;;;;;5042113;28;20266;-70
2023/06/19 12:39:26;;;;;;;7.25;6.63;;;23.90;99.90;;;;;;5049767;28;20230;-73
2023/06/19 12:41:53;;;;;;;8.35;7.55;;;24.00;99.90;;;;;;5050322;28;20562;-70
2023/06/19 12:44:22;;;;;;;7.88;7.10;;;23.90;99.90;;;;;;5050399;28;20238;-71